Time;durP1;ratioP1;P1;durP2;ratioP2;P2;SDS_P1;SDS_P2;PMS_P1;PMS_P2;Temp;Humidity;BMP_temperature;BMP_pressure;BME280_temperature;BME280_humidity;BME280_pressure;Samples;Min_cycle;Max_cycle;Signal;HPM_P1;HPM_P2
2021/09/06 00:02:04;;;;;;;1.40;0.95;;;23.30;99.90;;;;;;20617729;23;20242;-65
2021/09/06 00:12:10;;;;;;;3.30;0.93;;;23.20;99.90;;;;;;20780808;28;20229;-65
2021/09/06 00:22:13;;;;;;;1.27;1.00;;;23.30;99.90;;;;;;20777233;28;20915;-65
2021/09/06 00:32:18;;;;;;;0.90;0.82;;;23.20;99.90;;;;;;20761639;28;20230;-66
2021/09/06 00:42:22;;;;;;;2.17;0.95;;;23.00;99.90;;;;;;20777122;28;20279;-66
2021/09/06 00:52:27;;;;;;;0.43;0.43;;;23.10;99.90;;;;;;20777892;28;20695;-66
2021/09/06 01:02:31;;;;;;;0.22;0.22;;;23.20;99.90;;;;;;20776548;28;20226;-66
2021/09/06 01:12:36;;;;;;;0.52;0.52;;;23.30;99.90;;;;;;20776235;28;20606;-67
2021/09/06 01:22:40;;;;;;;0.85;0.82;;;23.20;99.90;;;;;;20757653;28;20204;-65
2021/09/06 01:32:45;;;;;;;2.83;1.02;;;22.90;99.90;;;;;;20788963;28;20527;-66
2021/09/06 01:42:49;;;;;;;3.90;0.77;;;22.80;99.90;;;;;;20791208;28;20977;-65
2021/09/06 01:52:54;;;;;;;0.35;0.35;;;23.00;99.90;;;;;;20790187;28;20230;-67
2021/09/06 02:02:57;;;;;;;0.90;0.90;;;23.10;99.90;;;;;;20743228;22;20235;-69
2021/09/06 02:13:03;;;;;;;1.38;0.70;;;23.30;99.90;;;;;;20624074;28;20211;-70
2021/09/06 02:23:07;;;;;;;0.73;0.47;;;23.10;99.90;;;;;;20664958;28;20222;-70
2021/09/06 02:33:12;;;;;;;0.65;0.65;;;23.10;99.90;;;;;;20685159;28;20194;-70
2021/09/06 02:43:16;;;;;;;0.38;0.20;;;23.20;99.90;;;;;;20704603;28;20199;-71
2021/09/06 02:53:21;;;;;;;2.38;0.95;;;23.30;99.90;;;;;;20703101;28;20195;-71
2021/09/06 03:03:24;;;;;;;1.30;0.70;;;23.20;99.90;;;;;;20599591;23;20565;-65
2021/09/06 03:13:31;;;;;;;2.95;2.05;;;22.90;99.90;;;;;;20426820;29;20208;-66
2021/09/06 03:23:34;;;;;;;1.98;1.05;;;23.00;99.90;;;;;;20497987;28;20298;-66
2021/09/06 03:33:40;;;;;;;0.55;0.55;;;23.20;99.90;;;;;;20530767;28;20215;-65
2021/09/06 03:43:43;;;;;;;2.55;1.33;;;23.20;99.90;;;;;;20538575;28;20216;-66
2021/09/06 03:53:48;;;;;;;12.23;1.48;;;23.30;99.90;;;;;;20529962;28;20600;-67
2021/09/06 04:03:52;;;;;;;1.08;1.08;;;23.30;99.90;;;;;;20539826;28;20247;-66
2021/09/06 04:13:57;;;;;;;1.65;1.25;;;23.40;99.90;;;;;;20536837;28;20623;-66
2021/09/06 04:24:01;;;;;;;0.55;0.55;;;23.40;99.90;;;;;;20487952;28;20228;-66
2021/09/06 04:34:06;;;;;;;0.98;0.38;;;23.50;99.90;;;;;;20434988;29;20308;-65
2021/09/06 04:44:10;;;;;;;2.35;1.55;;;23.50;99.90;;;;;;20454193;29;20681;-67
2021/09/06 04:54:15;;;;;;;8.80;1.98;;;23.50;99.90;;;;;;20454481;29;20670;-66
2021/09/06 05:04:19;;;;;;;2.15;0.77;;;23.50;99.90;;;;;;20460208;28;20776;-67
2021/09/06 05:14:24;;;;;;;0.30;0.30;;;23.40;99.90;;;;;;20470455;29;21071;-67
2021/09/06 05:24:27;;;;;;;0.65;0.65;;;23.20;99.90;;;;;;20516774;28;20219;-67
2021/09/06 05:34:32;;;;;;;1.15;0.77;;;23.30;99.90;;;;;;20548526;28;20255;-67
2021/09/06 05:44:36;;;;;;;1.23;1.13;;;23.30;99.90;;;;;;20540716;28;20390;-68
2021/09/06 05:54:42;;;;;;;0.20;0.10;;;23.30;99.90;;;;;;20529689;28;20714;-67
2021/09/06 06:04:45;;;;;;;2.70;1.67;;;23.40;99.90;;;;;;20542626;28;20600;-66
2021/09/06 06:14:50;;;;;;;1.35;1.25;;;23.40;99.90;;;;;;20529152;28;20956;-64
2021/09/06 06:24:54;;;;;;;2.15;1.00;;;23.60;99.90;;;;;;20494711;28;20288;-66
2021/09/06 06:34:59;;;;;;;2.67;1.77;;;23.90;99.90;;;;;;20446907;29;20308;-66
2021/09/06 06:45:04;;;;;;;0.85;0.85;;;24.00;99.90;;;;;;20460055;29;20221;-66
2021/09/06 06:55:10;;;;;;;1.27;0.98;;;24.30;99.90;;;;;;20459328;29;20197;-67
2021/09/06 07:05:14;;;;;;;1.42;1.33;;;24.50;99.90;;;;;;20505437;28;20244;-67
2021/09/06 07:15:19;;;;;;;5.88;1.38;;;24.80;99.90;;;;;;20536876;28;20203;-66
2021/09/06 07:25:23;;;;;;;1.42;1.33;;;25.00;99.90;;;;;;20501758;28;20247;-67
2021/09/06 07:35:29;;;;;;;1.95;1.52;;;25.20;99.90;;;;;;20464207;28;20422;-66
2021/09/06 07:45:35;;;;;;;1.63;1.48;;;25.40;99.90;;;;;;20495600;28;20224;-66
2021/09/06 07:55:40;;;;;;;1.88;1.77;;;25.70;99.90;;;;;;20454565;29;20193;-66
2021/09/06 08:05:44;;;;;;;3.13;1.63;;;25.80;99.90;;;;;;20455738;29;20236;-66
2021/09/06 08:15:49;;;;;;;4.10;2.85;;;25.90;99.90;;;;;;20455392;29;20228;-65
2021/09/06 08:25:52;;;;;;;3.83;1.80;;;26.20;99.90;;;;;;20426468;28;20228;-67
2021/09/06 08:35:57;;;;;;;2.65;2.15;;;26.50;99.90;;;;;;20457164;28;20200;-66
2021/09/06 08:46:02;;;;;;;3.65;2.25;;;27.10;99.90;;;;;;20403347;29;20232;-67
2021/09/06 08:56:07;;;;;;;3.88;1.67;;;27.00;99.90;;;;;;20388583;29;20233;-66
2021/09/06 09:06:38;;;;;;;2.28;2.13;;;26.90;99.90;;;;;;20373757;29;20248;-67
2021/09/06 09:16:43;;;;;;;3.22;0.98;;;26.70;99.90;;;;;;20405337;29;20199;-67
2021/09/06 09:26:56;;;;;;;1.77;0.52;;;27.00;99.90;;;;;;20535720;28;21037;-67
2021/09/06 09:37:01;;;;;;;1.55;0.88;;;27.70;99.90;;;;;;20547843;28;20200;-67
2021/09/06 09:47:05;;;;;;;2.75;1.33;;;27.70;99.90;;;;;;20525612;28;20314;-67
2021/09/06 09:57:10;;;;;;;1.13;0.55;;;28.10;99.90;;;;;;20544669;28;20299;-67
2021/09/06 10:07:13;;;;;;;0.95;0.63;;;28.20;99.90;;;;;;20542426;28;20254;-66
2021/09/06 10:17:19;;;;;;;3.38;1.58;;;28.40;99.90;;;;;;20501777;28;20201;-67
2021/09/06 10:27:24;;;;;;;0.30;0.30;;;28.70;99.90;;;;;;20517112;28;20223;-66
2021/09/06 10:37:34;;;;;;;3.10;1.88;;;28.70;99.90;;;;;;20521474;28;20219;-67
2021/09/06 10:48:01;;;;;;;4.05;2.35;;;28.80;99.90;;;;;;20536965;28;20559;-67
2021/09/06 10:58:13;;;;;;;0.73;0.57;;;29.80;99.90;;;;;;20538967;28;20200;-67
2021/09/06 11:08:16;;;;;;;0.57;0.45;;;29.90;99.90;;;;;;20587443;28;20284;-65
2021/09/06 11:18:21;;;;;;;1.30;1.17;;;29.80;99.90;;;;;;20585656;28;20685;-66
2021/09/06 11:28:25;;;;;;;0.75;0.73;;;30.20;99.90;;;;;;20615967;28;20265;-66
2021/09/06 11:38:30;;;;;;;1.05;0.52;;;31.00;99.90;;;;;;20613746;28;20557;-67
2021/09/06 11:48:44;;;;;;;1.67;1.27;;;31.00;99.90;;;;;;20615678;28;20229;-66
2021/09/06 11:58:49;;;;;;;1.73;1.02;;;31.00;99.90;;;;;;20617684;28;20204;-66
2021/09/06 12:08:55;;;;;;;1.70;0.80;;;31.50;99.90;;;;;;20621106;28;21136;-67
2021/09/06 12:19:21;;;;;;;1.48;1.38;;;31.60;99.90;;;;;;20581299;28;20196;-66
2021/09/06 12:29:30;;;;;;;5.03;1.17;;;32.20;99.90;;;;;;20596461;28;20223;-67
2021/09/06 12:39:37;;;;;;;3.50;0.77;;;33.10;99.90;;;;;;20615288;28;20298;-67
2021/09/06 12:49:41;;;;;;;0.50;0.30;;;33.30;99.90;;;;;;20609569;28;20253;-66
2021/09/06 12:59:46;;;;;;;5.22;1.48;;;32.50;99.90;;;;;;20613155;28;20666;-67
2021/09/06 13:09:49;;;;;;;0.57;0.57;;;33.50;99.90;;;;;;20591736;28;20224;-69
2021/09/06 13:19:54;;;;;;;0.35;0.30;;;33.90;99.90;;;;;;20581470;28;20704;-68
2021/09/06 13:29:58;;;;;;;0.82;0.63;;;33.10;99.90;;;;;;20586033;28;20743;-68
2021/09/06 13:40:04;;;;;;;0.50;0.40;;;31.60;99.90;;;;;;20559530;28;20210;-66
2021/09/06 13:50:09;;;;;;;16.65;1.83;;;32.70;99.90;;;;;;20548905;28;20220;-65
2021/09/06 14:00:17;;;;;;;0.98;0.43;;;31.40;99.90;;;;;;20525045;28;20580;-66
2021/09/06 14:10:21;;;;;;;0.60;0.60;;;33.10;99.90;;;;;;20539957;28;20227;-65
2021/09/06 14:20:26;;;;;;;0.82;0.57;;;33.30;99.90;;;;;;20550887;28;20192;-66
2021/09/06 14:30:30;;;;;;;1.38;1.10;;;35.70;99.90;;;;;;20618278;28;21146;-66
2021/09/06 14:40:37;;;;;;;1.90;0.95;;;34.40;99.90;;;;;;20614391;28;20196;-67
2021/09/06 14:50:40;;;;;;;1.17;0.57;;;35.40;99.90;;;;;;20616391;28;20701;-67
2021/09/06 15:00:45;;;;;;;1.10;0.70;;;35.10;99.90;;;;;;20596816;28;20660;-66
2021/09/06 15:10:49;;;;;;;2.38;1.30;;;33.70;99.90;;;;;;20616086;28;20223;-66
2021/09/06 15:20:54;;;;;;;1.00;0.90;;;33.60;99.90;;;;;;20581971;28;20207;-65
2021/09/06 15:31:13;;;;;;;0.82;0.80;;;34.20;99.90;;;;;;20613377;28;20223;-66
2021/09/06 15:41:18;;;;;;;0.50;0.50;;;32.50;99.90;;;;;;20613916;28;20195;-67
2021/09/06 15:51:23;;;;;;;0.22;0.20;;;31.50;99.90;;;;;;20613354;28;20778;-65
2021/09/06 16:01:27;;;;;;;0.80;0.80;;;30.50;99.90;;;;;;20610678;28;20571;-66
2021/09/06 16:11:32;;;;;;;1.60;1.02;;;30.00;99.90;;;;;;20609171;28;20238;-67
2021/09/06 16:21:37;;;;;;;2.78;1.02;;;29.60;99.90;;;;;;20579846;28;20195;-66
2021/09/06 16:31:41;;;;;;;0.73;0.73;;;29.40;99.90;;;;;;20604168;28;20286;-66
2021/09/06 16:41:46;;;;;;;6.47;1.38;;;29.50;99.90;;;;;;20532261;28;20342;-68
2021/09/06 16:51:50;;;;;;;0.65;0.65;;;29.40;99.90;;;;;;20513633;28;20222;-69
2021/09/06 17:01:55;;;;;;;2.50;1.02;;;29.10;99.90;;;;;;20540087;28;20363;-69
2021/09/06 17:12:00;;;;;;;1.27;0.90;;;28.60;99.90;;;;;;20547664;28;20232;-68
2021/09/06 17:22:08;;;;;;;0.30;0.30;;;28.50;99.90;;;;;;20577418;28;20217;-70
2021/09/06 17:32:12;;;;;;;3.60;0.65;;;28.50;99.90;;;;;;20614282;28;20278;-69
2021/09/06 17:42:17;;;;;;;1.38;0.32;;;27.90;99.90;;;;;;20545224;28;20335;-68
2021/09/06 17:52:21;;;;;;;0.70;0.50;;;27.30;99.90;;;;;;20526883;28;20242;-64
2021/09/06 18:02:26;;;;;;;3.25;2.10;;;27.40;99.90;;;;;;20543271;28;20223;-64
2021/09/06 18:12:31;;;;;;;2.65;1.15;;;27.30;99.90;;;;;;20485915;28;20221;-67
2021/09/06 18:22:39;;;;;;;2.83;1.08;;;27.20;99.90;;;;;;20513779;28;20302;-67
2021/09/06 18:32:43;;;;;;;1.02;0.52;;;27.00;99.90;;;;;;20581000;28;20707;-67
2021/09/06 18:42:48;;;;;;;1.00;0.80;;;26.70;99.90;;;;;;20545026;28;20200;-68
2021/09/06 18:52:53;;;;;;;0.80;0.32;;;26.90;99.90;;;;;;20482909;28;20224;-69
2021/09/06 19:02:58;;;;;;;0.32;0.20;;;26.90;99.90;;;;;;20495711;28;20225;-71
2021/09/06 19:13:02;;;;;;;0.63;0.35;;;26.70;99.90;;;;;;20459159;29;20220;-68
2021/09/06 19:23:07;;;;;;;1.15;0.98;;;26.50;99.90;;;;;;20534494;28;20195;-67
2021/09/06 19:33:11;;;;;;;0.40;0.40;;;26.50;99.90;;;;;;20580385;28;20226;-66
2021/09/06 19:43:16;;;;;;;0.30;0.22;;;26.50;99.90;;;;;;20539417;28;20657;-66
2021/09/06 19:53:20;;;;;;;0.65;0.55;;;26.40;99.90;;;;;;20519290;28;20769;-65
2021/09/06 20:03:26;;;;;;;0.35;0.30;;;26.50;99.90;;;;;;20539332;28;20251;-66
2021/09/06 20:13:31;;;;;;;0.80;0.68;;;26.60;99.90;;;;;;20518595;28;21129;-67
2021/09/06 20:23:37;;;;;;;0.30;0.30;;;26.50;99.90;;;;;;20577800;28;20215;-65
2021/09/06 20:33:41;;;;;;;0.60;0.57;;;26.30;99.90;;;;;;20601393;28;20234;-65
2021/09/06 20:43:46;;;;;;;3.38;0.45;;;26.30;99.90;;;;;;20549430;28;20661;-65
2021/09/06 20:53:49;;;;;;;0.70;0.70;;;26.20;99.90;;;;;;20549328;28;20234;-66
2021/09/06 21:03:55;;;;;;;0.73;0.73;;;25.90;99.90;;;;;;20545905;28;20232;-67
2021/09/06 21:13:58;;;;;;;4.47;1.55;;;26.10;99.90;;;;;;20516081;28;20533;-67
2021/09/06 21:24:04;;;;;;;0.60;0.32;;;26.00;99.90;;;;;;20538711;28;20271;-65
2021/09/06 21:34:10;;;;;;;0.50;0.50;;;26.00;99.90;;;;;;20500886;28;20232;-67
2021/09/06 21:44:15;;;;;;;1.88;1.00;;;25.70;99.90;;;;;;20545678;28;20208;-67
2021/09/06 21:54:19;;;;;;;1.90;0.98;;;25.70;99.90;;;;;;20533381;28;20240;-65
2021/09/06 22:04:24;;;;;;;0.73;0.73;;;25.70;99.90;;;;;;20463298;29;20231;-66
2021/09/06 22:14:28;;;;;;;2.42;0.70;;;25.60;99.90;;;;;;20452070;29;20315;-66
2021/09/06 22:24:33;;;;;;;0.50;0.45;;;25.50;99.90;;;;;;20560618;28;20326;-64
2021/09/06 22:34:37;;;;;;;1.58;1.17;;;25.50;99.90;;;;;;20592134;28;20238;-65
2021/09/06 22:44:42;;;;;;;0.75;0.73;;;25.40;99.90;;;;;;20541834;28;20215;-65
2021/09/06 22:54:46;;;;;;;1.05;0.82;;;25.40;99.90;;;;;;20540396;28;20228;-66
2021/09/06 23:04:51;;;;;;;0.82;0.43;;;25.40;99.90;;;;;;20541340;28;21046;-66
2021/09/06 23:14:55;;;;;;;1.02;0.93;;;25.30;99.90;;;;;;20538834;28;20232;-66
2021/09/06 23:25:00;;;;;;;0.55;0.35;;;25.20;99.90;;;;;;20595142;28;20191;-65
2021/09/06 23:35:04;;;;;;;1.58;0.90;;;25.20;99.90;;;;;;20582558;28;20223;-67
2021/09/06 23:45:11;;;;;;;1.20;1.00;;;25.20;99.90;;;;;;20540094;28;20220;-65
2021/09/06 23:55:14;;;;;;;1.25;1.15;;;25.20;99.90;;;;;;20536921;28;20385;-66
